Terminal Aerodrome Forecast
Issued by NWS

Home | Current Version | Previous Version | Text Only | Print | Product List | Glossary Off
Versions: 1 2 3 4 5 6 7 8 9 10 11 12 13 14 15 16 17 18 19 20 21 22 23

000
FTUS43 KBIS 200600 AAA
TAFJMS
TAF AMD
KJMS 200644Z 2007/2106 31008KT P6SM FEW070
     FM201100 27007KT P6SM SCT090
     FM201500 26010KT P6SM VCSH SCT050 BKN070
     FM201800 28020G30KT P6SM BKN045 BKN080
     FM202100 32021G31KT P6SM SCT070
     FM210100 30011KT P6SM SKC=

USA.gov is the U.S. government's official web portal to all federal, state and local government web resources and services.